Time;durP1;ratioP1;P1;durP2;ratioP2;P2;SDS_P1;SDS_P2;PMS_P1;PMS_P2;Temp;Humidity;BMP_temperature;BMP_pressure;BME280_temperature;BME280_humidity;BME280_pressure;Samples;Min_cycle;Max_cycle;Signal;HPM_P1;HPM_P2
2022/08/23 00:01:28;;;;;;;1.85;1.75;;;23.40;64.50;;;;;;5036268;28;20190;-72
2022/08/23 00:03:59;;;;;;;1.88;1.70;;;23.40;64.50;;;;;;5035093;28;20175;-72
2022/08/23 00:06:27;;;;;;;2.60;1.92;;;23.40;64.60;;;;;;5036133;28;20203;-72
2022/08/23 00:08:54;;;;;;;2.35;1.80;;;23.40;64.50;;;;;;5035445;28;20203;-72
2022/08/23 00:11:53;;;;;;;1.80;1.70;;;23.40;64.50;;;;;;5035027;28;20202;-72
2022/08/23 00:14:29;;;;;;;1.73;1.63;;;23.40;64.50;;;;;;5036310;28;20171;-72
2022/08/23 00:16:56;;;;;;;1.80;1.70;;;23.40;64.70;;;;;;5034578;28;20221;-72
2022/08/23 00:19:23;;;;;;;2.47;1.88;;;23.40;64.60;;;;;;5033832;28;20223;-72
2022/08/23 00:21:51;;;;;;;1.83;1.73;;;23.40;64.60;;;;;;5034602;28;20269;-72
2022/08/23 00:24:18;;;;;;;1.90;1.80;;;23.40;64.50;;;;;;5034512;28;20214;-72
2022/08/23 00:27:15;;;;;;;1.95;1.50;;;23.40;64.60;;;;;;5034475;28;20183;-72
2022/08/23 00:29:48;;;;;;;2.03;1.83;;;23.40;64.70;;;;;;5050686;28;20203;-72
2022/08/23 00:32:19;;;;;;;2.85;1.70;;;23.40;64.70;;;;;;5034464;28;20211;-72
2022/08/23 00:34:45;;;;;;;1.73;1.63;;;23.40;64.50;;;;;;5017901;28;20255;-72
2022/08/23 00:37:13;;;;;;;1.85;1.75;;;23.40;64.60;;;;;;5034147;28;20275;-72
2022/08/23 00:39:40;;;;;;;2.38;1.70;;;23.40;64.60;;;;;;5050146;28;20242;-72
2022/08/23 00:48:00;;;;;;;1.67;1.58;;;23.40;64.70;;;;;;5033696;28;20200;-72
2022/08/23 00:50:49;;;;;;;1.75;1.65;;;23.40;64.70;;;;;;5017745;28;20186;-72
2022/08/23 00:53:22;;;;;;;1.70;1.60;;;23.40;64.70;;;;;;5017724;28;20191;-72
2022/08/23 00:55:56;;;;;;;2.63;1.88;;;23.40;64.70;;;;;;5033563;28;20655;-73
2022/08/23 00:58:22;;;;;;;1.88;1.75;;;23.40;64.60;;;;;;5048895;28;20223;-72
2022/08/23 01:00:52;;;;;;;1.70;1.60;;;23.30;64.40;;;;;;5017378;28;20190;-72
2022/08/23 01:03:22;;;;;;;1.63;1.52;;;23.40;64.70;;;;;;5035034;28;20187;-72
2022/08/23 01:06:04;;;;;;;2.03;1.80;;;23.40;64.70;;;;;;5017533;28;20284;-72
2022/08/23 01:08:34;;;;;;;1.90;1.80;;;23.40;64.50;;;;;;5049691;28;20207;-72
2022/08/23 01:11:18;;;;;;;1.88;1.77;;;23.30;64.60;;;;;;5034122;28;20187;-72
2022/08/23 01:13:53;;;;;;;1.50;1.40;;;23.30;64.60;;;;;;5033970;28;20183;-72
2022/08/23 01:16:44;;;;;;;1.70;1.60;;;23.30;64.60;;;;;;5017234;28;20194;-72
2022/08/23 01:19:37;;;;;;;2.38;1.70;;;23.30;64.60;;;;;;5032981;28;20210;-72
2022/08/23 01:22:18;;;;;;;2.00;1.77;;;23.30;64.40;;;;;;5050437;28;20172;-72
2022/08/23 01:24:45;;;;;;;1.50;1.40;;;23.40;64.80;;;;;;5033701;28;20171;-72
2022/08/23 01:27:12;;;;;;;1.70;1.60;;;23.30;64.60;;;;;;5016870;28;20194;-72
2022/08/23 01:29:40;;;;;;;1.55;1.45;;;23.40;64.70;;;;;;5033005;28;20211;-72
2022/08/23 01:32:09;;;;;;;1.73;1.63;;;23.40;64.70;;;;;;5016891;28;20184;-72
2022/08/23 01:34:35;;;;;;;1.60;1.50;;;23.30;64.60;;;;;;5050241;28;20179;-72
2022/08/23 01:37:06;;;;;;;1.80;1.70;;;23.40;64.60;;;;;;5049797;28;20179;-72
2022/08/23 01:39:34;;;;;;;1.70;1.60;;;23.30;64.60;;;;;;5032510;28;20219;-72
2022/08/23 01:42:05;;;;;;;2.13;1.70;;;23.30;64.70;;;;;;5033065;28;20179;-73
2022/08/23 01:44:31;;;;;;;1.95;1.77;;;23.30;64.60;;;;;;5029847;28;20667;-72
2022/08/23 01:46:57;;;;;;;1.50;1.40;;;23.30;64.70;;;;;;5013201;28;20219;-72
2022/08/23 01:49:23;;;;;;;1.77;1.67;;;23.30;64.70;;;;;;5012754;28;20203;-72
2022/08/23 01:51:48;;;;;;;2.03;1.85;;;23.30;64.80;;;;;;5013426;28;20559;-72
2022/08/23 01:54:14;;;;;;;1.65;1.50;;;23.30;64.60;;;;;;4997035;28;20549;-72
2022/08/23 01:56:42;;;;;;;1.60;1.50;;;23.30;64.80;;;;;;5012830;28;20219;-72
2022/08/23 01:59:12;;;;;;;1.73;1.63;;;23.30;64.70;;;;;;5012238;28;20216;-72
2022/08/23 02:01:52;;;;;;;1.80;1.70;;;23.30;64.80;;;;;;5013093;28;20212;-72
2022/08/23 02:04:18;;;;;;;1.60;1.50;;;23.30;64.70;;;;;;5012840;28;20180;-72
2022/08/23 02:06:45;;;;;;;1.50;1.40;;;23.30;64.80;;;;;;5012853;28;20211;-72
2022/08/23 02:09:16;;;;;;;1.70;1.60;;;23.30;64.60;;;;;;5012008;28;20204;-72
2022/08/23 02:11:42;;;;;;;1.60;1.50;;;23.30;64.60;;;;;;5013054;28;20180;-72
2022/08/23 02:14:14;;;;;;;1.40;1.30;;;23.30;64.60;;;;;;5012629;28;20276;-72
2022/08/23 02:16:52;;;;;;;1.63;1.50;;;23.30;64.80;;;;;;5029586;28;20194;-72
2022/08/23 02:19:19;;;;;;;1.60;1.50;;;23.30;64.70;;;;;;5017413;28;20211;-72
2022/08/23 02:21:45;;;;;;;1.60;1.50;;;23.20;64.70;;;;;;5032599;28;20203;-72
2022/08/23 02:24:17;;;;;;;1.60;1.50;;;23.20;64.60;;;;;;5032596;28;20270;-72
2022/08/23 02:26:48;;;;;;;1.60;1.50;;;23.20;64.50;;;;;;5032312;28;20258;-72
2022/08/23 02:29:16;;;;;;;1.70;1.60;;;23.30;64.60;;;;;;5031601;28;20238;-72
2022/08/23 02:31:43;;;;;;;1.55;1.45;;;23.20;64.60;;;;;;5032623;28;20596;-72
2022/08/23 02:34:12;;;;;;;1.58;1.48;;;23.20;64.60;;;;;;5015504;28;20545;-72
2022/08/23 02:36:38;;;;;;;1.63;1.52;;;23.20;64.50;;;;;;5015174;28;20757;-72
2022/08/23 02:39:07;;;;;;;1.60;1.50;;;23.20;64.60;;;;;;5031497;28;20251;-72
2022/08/23 02:41:34;;;;;;;1.83;1.73;;;23.30;64.70;;;;;;5048499;28;20567;-72
2022/08/23 02:44:01;;;;;;;1.60;1.50;;;23.20;64.60;;;;;;5032211;28;20168;-72
2022/08/23 02:46:28;;;;;;;1.67;1.58;;;23.20;64.70;;;;;;5032125;28;20187;-72
2022/08/23 02:48:55;;;;;;;1.40;1.30;;;23.20;64.80;;;;;;5031464;28;20289;-72
2022/08/23 02:51:23;;;;;;;1.67;1.58;;;23.20;64.70;;;;;;5031734;28;20191;-72
2022/08/23 02:53:50;;;;;;;2.03;1.83;;;23.20;64.50;;;;;;5031832;28;20183;-73
2022/08/23 02:56:20;;;;;;;1.80;1.70;;;23.20;64.70;;;;;;5031695;28;20183;-72
2022/08/23 02:58:46;;;;;;;1.63;1.52;;;23.20;64.70;;;;;;5014505;28;20717;-72
2022/08/23 03:01:44;;;;;;;1.65;1.55;;;23.20;64.60;;;;;;5015816;28;20225;-72
2022/08/23 03:04:23;;;;;;;1.60;1.50;;;23.20;64.60;;;;;;5016854;28;20232;-72
2022/08/23 03:06:49;;;;;;;1.70;1.60;;;23.20;64.60;;;;;;5015094;28;20183;-73
2022/08/23 03:09:15;;;;;;;1.80;1.70;;;23.20;64.60;;;;;;5047411;28;20261;-72
2022/08/23 03:11:48;;;;;;;1.70;1.60;;;23.20;64.60;;;;;;5015371;28;20257;-72
2022/08/23 03:14:15;;;;;;;1.65;1.55;;;23.20;64.60;;;;;;5047973;28;20198;-72
2022/08/23 03:16:42;;;;;;;1.42;1.33;;;23.20;64.70;;;;;;5015150;28;20191;-72
2022/08/23 03:19:08;;;;;;;1.70;1.60;;;23.20;64.70;;;;;;5031121;28;20295;-72
2022/08/23 03:21:34;;;;;;;1.70;1.60;;;23.20;64.70;;;;;;5030769;28;20219;-72
2022/08/23 03:24:00;;;;;;;1.70;1.60;;;23.20;64.60;;;;;;5014823;28;20242;-72
2022/08/23 03:26:28;;;;;;;1.63;1.52;;;23.20;64.50;;;;;;5031261;28;20671;-72
2022/08/23 03:28:55;;;;;;;1.75;1.30;;;23.20;64.70;;;;;;5014120;28;20210;-72
2022/08/23 03:31:22;;;;;;;1.60;1.50;;;23.20;64.50;;;;;;5048094;28;20191;-72
2022/08/23 03:33:58;;;;;;;1.60;1.50;;;23.20;64.70;;;;;;5031501;28;20182;-72
2022/08/23 03:36:25;;;;;;;1.52;1.42;;;23.20;64.60;;;;;;5047945;28;20187;-72
2022/08/23 03:38:51;;;;;;;1.40;1.30;;;23.20;64.70;;;;;;5047034;28;20211;-72
2022/08/23 03:41:18;;;;;;;1.50;1.40;;;23.20;64.70;;;;;;5031433;28;20265;-72
2022/08/23 03:43:44;;;;;;;1.33;1.30;;;23.20;64.60;;;;;;5047961;28;20271;-72
2022/08/23 03:46:21;;;;;;;1.42;1.33;;;23.10;64.50;;;;;;5015014;28;20198;-72
2022/08/23 03:48:55;;;;;;;1.70;1.60;;;23.10;64.50;;;;;;5047084;28;20210;-72
2022/08/23 03:51:23;;;;;;;1.55;1.45;;;23.10;64.40;;;;;;5047556;28;20227;-72
2022/08/23 03:53:49;;;;;;;1.80;1.70;;;23.20;64.60;;;;;;5030949;28;20187;-72
2022/08/23 03:56:32;;;;;;;1.50;1.40;;;23.20;64.50;;;;;;5047543;28;20176;-72
2022/08/23 03:59:05;;;;;;;1.40;1.30;;;23.20;64.70;;;;;;5047095;28;20229;-72
2022/08/23 04:01:30;;;;;;;1.38;1.27;;;23.10;64.60;;;;;;5031136;28;20182;-72
2022/08/23 04:03:58;;;;;;;2.00;1.90;;;23.10;64.50;;;;;;5030821;28;20183;-72
2022/08/23 04:06:26;;;;;;;1.42;1.33;;;23.20;64.80;;;;;;5014707;28;20186;-72
2022/08/23 04:08:53;;;;;;;1.83;1.73;;;23.10;64.60;;;;;;5030147;28;20210;-72
2022/08/23 04:11:21;;;;;;;1.30;1.20;;;23.20;64.70;;;;;;5014679;28;20183;-72
2022/08/23 04:13:55;;;;;;;1.40;1.30;;;23.10;64.50;;;;;;5030956;28;20171;-72
2022/08/23 04:16:21;;;;;;;1.38;1.38;;;23.20;64.60;;;;;;5030757;28;20203;-72
2022/08/23 04:18:48;;;;;;;1.20;1.20;;;23.10;64.50;;;;;;5013982;28;20222;-72
2022/08/23 04:21:21;;;;;;;1.80;1.70;;;23.10;64.50;;;;;;5030709;28;20183;-72
2022/08/23 04:23:47;;;;;;;1.70;1.60;;;23.10;64.30;;;;;;5047292;28;20183;-72
2022/08/23 04:26:13;;;;;;;1.80;1.70;;;23.20;64.50;;;;;;5031791;28;20190;-72
2022/08/23 04:28:40;;;;;;;1.45;1.35;;;23.20;64.60;;;;;;5014194;28;20203;-72
2022/08/23 04:31:06;;;;;;;1.50;1.40;;;23.10;64.50;;;;;;5014476;28;20191;-72
2022/08/23 04:33:34;;;;;;;1.48;1.38;;;23.20;64.70;;;;;;5033200;28;20236;-72
2022/08/23 04:36:01;;;;;;;1.70;1.60;;;23.10;64.60;;;;;;5034259;28;20643;-73
2022/08/23 04:38:27;;;;;;;1.20;1.20;;;23.10;64.50;;;;;;5050500;28;20238;-72
2022/08/23 04:43:45;;;;;;;1.65;1.55;;;23.10;64.50;;;;;;5035369;28;20156;-72
2022/08/23 04:46:14;;;;;;;1.33;1.30;;;23.10;64.40;;;;;;5034059;28;20191;-72
2022/08/23 04:48:43;;;;;;;1.20;1.20;;;23.10;64.30;;;;;;5017167;28;20284;-72
2022/08/23 04:51:10;;;;;;;1.80;1.70;;;23.10;64.40;;;;;;5017488;28;20191;-72
2022/08/23 04:53:38;;;;;;;1.27;1.27;;;23.10;64.40;;;;;;5050654;28;20183;-72
2022/08/23 04:56:22;;;;;;;1.52;1.42;;;23.10;64.60;;;;;;5035426;28;20202;-72
2022/08/23 04:58:49;;;;;;;1.15;1.15;;;23.10;64.50;;;;;;5017250;28;20219;-72
2022/08/23 05:01:15;;;;;;;1.63;1.50;;;23.10;64.50;;;;;;5017556;28;20176;-72
2022/08/23 05:03:43;;;;;;;1.55;1.45;;;23.10;64.40;;;;;;5034127;28;20171;-72
2022/08/23 05:06:09;;;;;;;1.40;1.30;;;23.10;64.30;;;;;;5033998;28;20663;-72
2022/08/23 05:08:38;;;;;;;1.75;1.30;;;23.10;64.30;;;;;;5049196;28;20206;-72
2022/08/23 05:11:08;;;;;;;1.77;1.67;;;23.10;64.40;;;;;;5017411;28;20256;-72
2022/08/23 05:13:35;;;;;;;1.52;1.42;;;23.10;64.20;;;;;;5034898;28;20381;-72
2022/08/23 05:16:04;;;;;;;1.45;1.35;;;23.10;64.50;;;;;;5033536;28;20187;-72
2022/08/23 05:18:34;;;;;;;1.48;1.38;;;23.10;64.50;;;;;;5049970;28;20216;-72
2022/08/23 05:21:00;;;;;;;1.35;1.25;;;23.10;64.50;;;;;;5033694;28;20176;-72
2022/08/23 05:23:26;;;;;;;1.60;1.50;;;23.10;64.40;;;;;;5016969;28;20183;-72
2022/08/23 05:26:00;;;;;;;1.42;1.33;;;23.10;64.40;;;;;;5033395;28;20179;-72
2022/08/23 05:28:35;;;;;;;1.48;1.38;;;23.10;64.40;;;;;;5049431;28;20215;-72
2022/08/23 05:31:20;;;;;;;1.65;1.55;;;23.10;64.30;;;;;;5033299;28;20198;-72
2022/08/23 05:33:52;;;;;;;1.75;1.50;;;23.00;64.40;;;;;;5033314;28;20200;-72
2022/08/23 05:36:28;;;;;;;2.75;1.63;;;23.10;64.50;;;;;;5049957;28;20186;-72
2022/08/23 05:38:54;;;;;;;1.35;1.27;;;23.10;64.60;;;;;;5033542;28;20218;-72
2022/08/23 05:41:21;;;;;;;1.40;1.30;;;23.10;64.60;;;;;;5016405;28;20207;-72
2022/08/23 05:43:48;;;;;;;1.55;1.45;;;23.00;64.00;;;;;;5032602;28;20187;-74
2022/08/23 05:46:18;;;;;;;1.52;1.42;;;22.80;61.70;;;;;;5032731;28;20777;-72
2022/08/23 05:48:52;;;;;;;1.70;1.60;;;22.70;61.30;;;;;;5031638;28;20207;-72
2022/08/23 05:51:29;;;;;;;1.42;1.33;;;22.60;60.60;;;;;;5049788;28;20191;-72
2022/08/23 05:54:05;;;;;;;1.80;1.70;;;22.60;60.10;;;;;;5032915;28;20197;-72
2022/08/23 05:56:38;;;;;;;1.75;1.65;;;22.50;59.90;;;;;;5016377;28;20644;-72
2022/08/23 05:59:08;;;;;;;2.72;1.60;;;22.50;60.00;;;;;;5033037;28;20215;-72
2022/08/23 06:01:36;;;;;;;2.10;1.90;;;22.40;60.00;;;;;;5033940;28;20171;-71
2022/08/23 06:04:12;;;;;;;3.83;1.92;;;22.40;60.40;;;;;;5017266;28;20225;-72
2022/08/23 06:06:42;;;;;;;1.90;1.80;;;22.40;60.60;;;;;;5032684;28;20202;-73
2022/08/23 06:09:13;;;;;;;2.00;1.90;;;22.40;60.70;;;;;;5031795;28;20298;-72
2022/08/23 06:11:44;;;;;;;2.80;1.80;;;22.40;61.00;;;;;;5032608;28;20243;-72
2022/08/23 06:14:10;;;;;;;5.25;2.10;;;22.40;61.10;;;;;;5031161;28;20190;-71
2022/08/23 06:16:42;;;;;;;2.10;2.00;;;22.40;61.20;;;;;;5036866;28;20191;-72
2022/08/23 06:19:11;;;;;;;2.20;1.67;;;22.40;61.40;;;;;;5031121;28;20302;-72
2022/08/23 06:21:57;;;;;;;2.92;1.95;;;22.40;61.70;;;;;;5021970;28;20183;-72
2022/08/23 06:24:32;;;;;;;3.95;2.03;;;22.40;61.90;;;;;;5032487;28;20205;-72
2022/08/23 06:27:16;;;;;;;2.22;1.83;;;22.50;62.40;;;;;;5031932;28;20179;-72
2022/08/23 06:29:43;;;;;;;2.50;1.88;;;22.50;62.60;;;;;;5031259;28;20210;-72
2022/08/23 06:32:27;;;;;;;2.95;1.80;;;22.50;63.10;;;;;;5033138;28;20274;-71
2022/08/23 06:35:25;;;;;;;3.05;1.80;;;22.50;63.60;;;;;;5023632;28;20183;-72
2022/08/23 06:38:03;;;;;;;2.30;2.10;;;22.60;63.80;;;;;;5030940;28;20293;-72
2022/08/23 06:40:47;;;;;;;2.63;1.90;;;22.60;63.80;;;;;;5032103;28;20270;-72
2022/08/23 06:43:26;;;;;;;3.88;2.45;;;22.60;64.10;;;;;;5033193;28;20155;-72
2022/08/23 06:46:15;;;;;;;3.42;2.28;;;22.60;64.30;;;;;;5014587;28;20630;-72
2022/08/23 06:48:43;;;;;;;3.50;2.25;;;22.60;64.40;;;;;;5014136;28;20203;-72
2022/08/23 06:51:38;;;;;;;5.03;2.20;;;22.60;64.40;;;;;;5031461;28;20230;-73
2022/08/23 06:54:18;;;;;;;2.83;2.20;;;22.70;64.40;;;;;;5014416;28;20195;-72
2022/08/23 06:57:01;;;;;;;3.10;2.10;;;22.70;63.80;;;;;;5030152;28;20222;-72
2022/08/23 06:59:30;;;;;;;3.33;2.25;;;22.70;64.30;;;;;;5030832;28;20305;-72
2022/08/23 07:02:26;;;;;;;2.78;2.30;;;22.70;64.30;;;;;;5030770;28;20189;-72
2022/08/23 07:05:11;;;;;;;4.32;2.10;;;22.80;64.50;;;;;;5032040;28;20221;-72
2022/08/23 07:07:42;;;;;;;4.88;2.25;;;22.80;65.00;;;;;;5031675;28;20159;-71
2022/08/23 07:10:09;;;;;;;6.35;2.88;;;22.80;64.20;;;;;;5030981;28;20191;-71
2022/08/23 07:12:41;;;;;;;2.60;2.30;;;22.80;64.80;;;;;;5031399;28;20183;-71
2022/08/23 07:15:11;;;;;;;4.38;2.63;;;22.80;65.30;;;;;;5031600;28;20634;-71
2022/08/23 07:17:38;;;;;;;3.13;2.50;;;22.80;65.00;;;;;;5031090;28;20217;-71
2022/08/23 07:20:04;;;;;;;4.75;2.55;;;22.90;66.00;;;;;;5030869;28;20306;-71
2022/08/23 07:22:33;;;;;;;5.93;2.88;;;22.90;66.40;;;;;;5031278;28;20202;-73
2022/08/23 07:24:58;;;;;;;3.25;2.28;;;22.90;65.90;;;;;;5029676;28;20183;-71
2022/08/23 07:27:25;;;;;;;4.43;2.47;;;22.90;65.70;;;;;;5047784;28;20191;-71
2022/08/23 07:30:01;;;;;;;6.22;3.00;;;22.90;65.70;;;;;;5010378;28;20226;-72
2022/08/23 07:32:27;;;;;;;6.18;2.90;;;22.90;65.90;;;;;;5027988;28;20542;-72
2022/08/23 07:34:55;;;;;;;7.13;2.67;;;22.90;66.10;;;;;;5011537;28;20237;-72
2022/08/23 07:37:22;;;;;;;6.95;3.22;;;23.00;66.20;;;;;;5027657;28;20180;-71
2022/08/23 07:39:47;;;;;;;6.72;2.97;;;23.00;66.00;;;;;;5011770;28;20223;-72
2022/08/23 07:42:13;;;;;;;7.53;3.22;;;23.00;66.00;;;;;;5011693;28;20180;-72
2022/08/23 07:44:39;;;;;;;6.22;2.70;;;23.00;66.00;;;;;;4995066;28;20263;-72
2022/08/23 07:47:05;;;;;;;5.82;2.70;;;23.00;66.10;;;;;;5027655;28;20180;-71
2022/08/23 07:49:31;;;;;;;3.72;2.63;;;23.10;66.00;;;;;;5010962;28;20558;-72
2022/08/23 07:52:00;;;;;;;7.30;2.40;;;23.10;66.10;;;;;;5011286;28;20277;-72
2022/08/23 07:54:27;;;;;;;6.13;2.67;;;23.10;65.90;;;;;;5011191;28;20183;-72
2022/08/23 07:57:08;;;;;;;4.50;2.53;;;23.20;65.70;;;;;;5022319;28;20254;-71
2022/08/23 08:00:05;;;;;;;5.25;2.50;;;23.20;65.50;;;;;;5030451;28;20261;-73
2022/08/23 08:02:59;;;;;;;3.25;2.10;;;23.20;65.30;;;;;;5030670;28;20213;-72
2022/08/23 08:05:34;;;;;;;3.10;2.30;;;23.20;65.00;;;;;;5021848;28;20196;-72
2022/08/23 08:08:03;;;;;;;3.25;2.20;;;23.30;64.90;;;;;;5045636;28;20217;-72
2022/08/23 08:10:30;;;;;;;3.75;2.33;;;23.30;64.60;;;;;;5034402;28;20282;-71
2022/08/23 08:12:57;;;;;;;4.43;2.28;;;23.30;64.40;;;;;;5034746;28;20176;-72
2022/08/23 08:15:23;;;;;;;3.35;2.03;;;23.40;64.50;;;;;;5034503;28;20193;-72
2022/08/23 08:17:57;;;;;;;6.40;2.72;;;23.40;64.30;;;;;;5019012;28;20244;-71
2022/08/23 08:20:44;;;;;;;4.25;2.08;;;23.40;64.00;;;;;;5035276;28;20250;-71
2022/08/23 08:23:29;;;;;;;3.58;2.15;;;23.40;63.80;;;;;;5034673;28;20701;-71
2022/08/23 08:26:24;;;;;;;3.15;2.15;;;23.40;63.60;;;;;;5035450;28;20748;-71
2022/08/23 08:28:55;;;;;;;2.17;1.98;;;23.40;63.40;;;;;;5033700;28;20243;-71
2022/08/23 08:31:24;;;;;;;2.97;2.00;;;23.40;63.20;;;;;;5034453;28;20179;-72
2022/08/23 08:33:50;;;;;;;2.95;2.10;;;23.40;63.00;;;;;;5034213;28;20241;-71
2022/08/23 08:36:35;;;;;;;3.28;2.00;;;23.40;62.80;;;;;;5034123;28;20539;-72
2022/08/23 08:39:11;;;;;;;1.90;1.58;;;23.40;62.70;;;;;;5017514;28;20298;-71
2022/08/23 08:41:51;;;;;;;3.70;2.22;;;23.50;62.70;;;;;;5034050;28;20182;-72
2022/08/23 08:44:45;;;;;;;2.25;1.85;;;23.50;62.30;;;;;;5034578;28;20198;-72
2022/08/23 08:48:00;;;;;;;2.80;1.98;;;23.50;62.10;;;;;;5031927;28;20187;-72
2022/08/23 08:50:46;;;;;;;2.15;1.95;;;23.50;62.20;;;;;;5013627;28;20192;-71
2022/08/23 08:53:24;;;;;;;2.65;2.33;;;23.50;62.20;;;;;;5014507;28;20203;-72
2022/08/23 08:56:27;;;;;;;2.75;2.03;;;23.50;62.30;;;;;;5014186;28;20542;-72
2022/08/23 08:59:06;;;;;;;2.45;2.10;;;23.60;62.30;;;;;;4998495;28;20215;-71
2022/08/23 09:01:37;;;;;;;2.58;2.30;;;23.60;62.10;;;;;;5014209;28;20271;-71
2022/08/23 09:04:05;;;;;;;2.53;2.20;;;23.60;62.00;;;;;;5014382;28;20192;-72
2022/08/23 09:07:08;;;;;;;2.38;2.03;;;23.60;61.90;;;;;;5030517;28;20336;-72
2022/08/23 09:10:26;;;;;;;2.10;1.90;;;23.60;61.90;;;;;;5029743;28;20271;-72
2022/08/23 09:13:34;;;;;;;2.78;2.10;;;23.60;61.80;;;;;;5014149;28;20184;-72
2022/08/23 09:16:27;;;;;;;3.10;2.03;;;23.60;61.80;;;;;;5013625;28;20180;-71
2022/08/23 09:18:53;;;;;;;4.32;2.15;;;23.60;61.80;;;;;;5028586;28;20219;-72
2022/08/23 09:21:19;;;;;;;2.25;1.73;;;23.60;61.70;;;;;;5013647;28;20192;-71
2022/08/23 09:23:49;;;;;;;4.47;2.20;;;23.60;61.70;;;;;;5013842;28;20190;-71
2022/08/23 09:26:29;;;;;;;4.47;1.75;;;23.60;61.50;;;;;;5014945;28;20230;-72
2022/08/23 09:29:11;;;;;;;2.95;2.00;;;23.60;61.50;;;;;;5013320;28;20234;-71
2022/08/23 09:31:51;;;;;;;5.38;2.15;;;23.60;61.60;;;;;;5021289;28;20191;-71
2022/08/23 09:34:37;;;;;;;7.65;2.00;;;23.70;61.80;;;;;;5015307;28;20624;-72
2022/08/23 09:37:21;;;;;;;4.13;2.35;;;23.70;61.80;;;;;;5013792;28;20195;-73
2022/08/23 09:39:53;;;;;;;3.33;2.05;;;23.70;61.90;;;;;;5028793;28;20211;-72
2022/08/23 09:42:35;;;;;;;4.05;2.00;;;23.70;61.90;;;;;;5031139;28;20175;-71
2022/08/23 09:45:28;;;;;;;3.70;2.25;;;23.70;62.00;;;;;;5047283;28;20179;-71
2022/08/23 09:47:54;;;;;;;3.03;1.80;;;23.70;62.10;;;;;;5030756;28;20261;-71
2022/08/23 09:50:53;;;;;;;5.78;2.70;;;23.80;62.20;;;;;;5030094;28;20193;-72
2022/08/23 09:53:26;;;;;;;3.75;2.70;;;23.80;62.50;;;;;;4997841;28;20188;-72
2022/08/23 09:55:57;;;;;;;5.75;3.17;;;23.80;62.70;;;;;;5010643;28;20184;-72
2022/08/23 09:58:32;;;;;;;4.80;3.15;;;23.80;62.90;;;;;;5010684;28;20295;-72
2022/08/23 10:01:16;;;;;;;4.93;3.55;;;23.80;63.20;;;;;;5010552;28;20188;-71
2022/08/23 10:04:21;;;;;;;7.53;3.90;;;23.80;63.50;;;;;;5011399;28;20176;-71
2022/08/23 10:06:47;;;;;;;5.50;3.47;;;23.80;63.70;;;;;;5010605;28;20214;-71
2022/08/23 10:09:31;;;;;;;6.80;3.75;;;23.80;63.90;;;;;;5009795;28;20215;-71
2022/08/23 10:12:00;;;;;;;8.57;4.38;;;23.80;63.90;;;;;;5010482;28;20258;-71
2022/08/23 10:14:31;;;;;;;9.60;4.20;;;23.80;63.90;;;;;;5010545;28;20604;-71
2022/08/23 10:17:36;;;;;;;3.95;2.97;;;23.80;64.20;;;;;;5010328;28;20203;-71
2022/08/23 10:20:22;;;;;;;5.50;3.63;;;23.80;64.10;;;;;;5009629;28;20295;-71
2022/08/23 10:23:14;;;;;;;5.70;3.55;;;23.80;64.10;;;;;;5010452;28;20214;-71
2022/08/23 10:25:57;;;;;;;4.47;3.20;;;23.80;63.80;;;;;;5010715;28;20172;-71
2022/08/23 10:31:50;;;;;;;3.63;2.80;;;23.90;64.30;;;;;;5012509;28;20573;-71
2022/08/23 10:34:28;;;;;;;4.75;2.55;;;23.90;63.70;;;;;;5012243;28;20188;-71
2022/08/23 10:37:34;;;;;;;3.55;2.83;;;23.90;63.80;;;;;;5012583;28;20195;-70
2022/08/23 10:40:27;;;;;;;3.38;2.47;;;23.90;63.70;;;;;;5011581;28;20216;-71
2022/08/23 10:43:07;;;;;;;4.88;2.33;;;23.90;64.00;;;;;;5012549;28;20188;-71
2022/08/23 10:45:36;;;;;;;5.32;2.75;;;23.90;64.00;;;;;;5012275;28;20176;-70
2022/08/23 10:48:26;;;;;;;3.60;2.40;;;23.90;63.50;;;;;;5012972;28;20267;-71
2022/08/23 10:51:29;;;;;;;2.40;2.17;;;24.00;63.30;;;;;;5011596;28;20179;-72
2022/08/23 10:54:06;;;;;;;4.45;2.15;;;23.90;63.20;;;;;;5004721;28;20195;-70
2022/08/23 10:56:35;;;;;;;4.65;2.40;;;24.00;63.40;;;;;;5011771;28;20183;-70
2022/08/23 10:59:22;;;;;;;4.28;2.17;;;24.00;63.30;;;;;;5011544;28;20316;-71
2022/08/23 11:02:03;;;;;;;2.95;2.05;;;24.00;63.30;;;;;;5012314;28;20168;-71
2022/08/23 11:04:43;;;;;;;4.97;2.55;;;24.00;63.30;;;;;;5012488;28;20175;-71
2022/08/23 11:07:33;;;;;;;19.95;3.20;;;24.00;63.20;;;;;;5011853;28;20173;-71
2022/08/23 11:10:04;;;;;;;17.02;3.10;;;24.00;63.30;;;;;;5011863;28;20188;-71
2022/08/23 11:13:00;;;;;;;11.40;2.65;;;24.00;63.20;;;;;;5011959;28;20188;-70
2022/08/23 11:15:44;;;;;;;7.82;2.70;;;23.90;63.50;;;;;;5011700;28;20199;-70
2022/08/23 11:18:42;;;;;;;7.97;2.75;;;23.80;63.60;;;;;;5012026;28;20306;-70
2022/08/23 11:21:16;;;;;;;6.55;2.40;;;23.70;63.70;;;;;;5010947;28;20192;-70
2022/08/23 11:23:49;;;;;;;7.10;2.60;;;23.70;63.70;;;;;;5012419;28;20195;-70
2022/08/23 11:26:21;;;;;;;7.47;2.58;;;23.60;63.70;;;;;;5011537;28;20191;-70
2022/08/23 11:28:51;;;;;;;5.20;2.85;;;23.70;63.80;;;;;;5011632;28;20200;-70
2022/08/23 11:31:46;;;;;;;6.85;2.28;;;23.60;64.40;;;;;;5021115;28;20184;-71
2022/08/23 11:34:58;;;;;;;4.82;2.50;;;23.60;63.80;;;;;;5027646;28;20176;-70
2022/08/23 11:37:46;;;;;;;6.13;2.10;;;23.60;63.60;;;;;;5011475;28;20195;-70
2022/08/23 11:40:12;;;;;;;6.10;2.65;;;23.60;63.50;;;;;;5027438;28;20195;-70
2022/08/23 11:42:41;;;;;;;5.68;2.00;;;23.60;63.60;;;;;;4994816;28;20542;-70
2022/08/23 11:45:40;;;;;;;6.97;2.50;;;23.60;63.60;;;;;;5015915;28;20183;-70
2022/08/23 11:48:33;;;;;;;3.50;1.88;;;23.60;63.60;;;;;;5014500;28;20206;-70
2022/08/23 11:51:26;;;;;;;2.75;1.95;;;23.60;63.50;;;;;;5030549;28;20377;-70
2022/08/23 11:53:52;;;;;;;5.18;2.05;;;23.60;63.60;;;;;;5032103;28;20190;-70
2022/08/23 11:56:38;;;;;;;3.17;2.15;;;23.60;63.20;;;;;;5030897;28;20183;-70
2022/08/23 12:00:00;;;;;;;3.25;2.38;;;23.60;63.50;;;;;;5013671;28;20710;-70
2022/08/23 12:02:46;;;;;;;4.20;1.95;;;23.60;63.50;;;;;;5030888;28;20175;-70
2022/08/23 12:05:19;;;;;;;2.60;1.98;;;23.60;63.50;;;;;;5032021;28;20171;-70
2022/08/23 12:08:16;;;;;;;3.88;2.25;;;23.60;63.50;;;;;;5031911;28;20199;-70
2022/08/23 12:10:41;;;;;;;3.08;2.20;;;23.60;63.50;;;;;;5030230;28;20180;-70
2022/08/23 12:13:31;;;;;;;3.35;1.90;;;23.60;63.20;;;;;;5014651;28;20187;-70
2022/08/23 12:16:12;;;;;;;3.67;2.10;;;23.60;63.20;;;;;;5031093;28;20217;-70
2022/08/23 12:18:52;;;;;;;2.85;1.90;;;23.60;63.20;;;;;;5031944;28;20200;-70
2022/08/23 12:21:34;;;;;;;4.80;2.10;;;23.60;63.10;;;;;;5031631;28;20168;-70
2022/08/23 12:24:13;;;;;;;3.38;2.15;;;23.60;63.30;;;;;;5030747;28;20175;-70
2022/08/23 12:26:51;;;;;;;5.88;2.20;;;23.60;63.20;;;;;;5014585;28;20186;-70
2022/08/23 12:29:35;;;;;;;4.07;2.22;;;23.60;63.10;;;;;;5031329;28;20210;-71
2022/08/23 12:32:33;;;;;;;3.40;2.20;;;23.60;63.30;;;;;;5030999;28;20686;-70
2022/08/23 12:35:40;;;;;;;2.13;1.80;;;23.60;63.10;;;;;;5008671;28;20266;-70
2022/08/23 12:38:56;;;;;;;3.03;2.13;;;23.60;63.20;;;;;;5013873;28;20211;-71
2022/08/23 12:41:28;;;;;;;3.95;2.30;;;23.60;63.30;;;;;;5030267;28;20198;-71
2022/08/23 12:44:08;;;;;;;2.50;2.00;;;23.60;63.30;;;;;;5010424;28;20229;-69
2022/08/23 12:46:45;;;;;;;2.22;1.60;;;23.60;63.30;;;;;;5015945;28;20203;-70
2022/08/23 12:49:32;;;;;;;2.42;2.22;;;23.60;63.10;;;;;;5029719;28;20229;-70
2022/08/23 12:52:05;;;;;;;5.80;2.33;;;23.60;63.10;;;;;;5030326;28;20175;-70
2022/08/23 12:54:36;;;;;;;2.72;2.00;;;23.60;63.20;;;;;;5014418;28;20636;-71
2022/08/23 12:57:10;;;;;;;2.85;2.10;;;23.60;63.20;;;;;;5033602;28;20560;-71
2022/08/23 12:59:55;;;;;;;2.42;1.70;;;23.60;63.10;;;;;;5032904;28;20215;-71
2022/08/23 13:02:29;;;;;;;3.10;1.85;;;23.60;63.00;;;;;;5033830;28;20175;-71
2022/08/23 13:05:06;;;;;;;2.30;2.10;;;23.60;63.00;;;;;;5016881;28;20187;-72
2022/08/23 13:07:38;;;;;;;2.08;1.85;;;23.60;63.00;;;;;;5032151;28;20195;-71
2022/08/23 13:10:07;;;;;;;2.65;1.80;;;23.60;62.70;;;;;;5032680;28;20233;-70
2022/08/23 13:12:34;;;;;;;2.72;1.90;;;23.60;62.90;;;;;;5033285;28;20218;-70
2022/08/23 13:15:01;;;;;;;2.42;1.80;;;23.60;63.00;;;;;;5033631;28;20249;-70
2022/08/23 13:17:35;;;;;;;3.70;1.80;;;23.60;63.00;;;;;;5032838;28;20214;-71
2022/08/23 13:20:01;;;;;;;3.13;2.22;;;23.60;62.90;;;;;;5032670;28;20241;-70
2022/08/23 13:22:33;;;;;;;2.33;2.03;;;23.60;63.10;;;;;;5033048;28;20183;-70
2022/08/23 13:25:08;;;;;;;2.83;1.90;;;23.60;63.00;;;;;;5036900;28;20206;-70
2022/08/23 13:27:53;;;;;;;3.40;2.05;;;23.60;62.80;;;;;;5016727;28;20183;-70
2022/08/23 13:30:25;;;;;;;2.65;2.15;;;23.60;62.80;;;;;;5033650;28;20179;-71
2022/08/23 13:33:12;;;;;;;3.75;2.00;;;23.60;62.80;;;;;;5034152;28;20182;-71
2022/08/23 13:35:43;;;;;;;3.00;2.25;;;23.60;62.60;;;;;;5016064;28;20202;-71
2022/08/23 13:38:31;;;;;;;3.05;1.80;;;23.60;62.70;;;;;;5033132;28;20203;-71
2022/08/23 13:41:07;;;;;;;2.45;2.15;;;23.60;62.70;;;;;;5000457;28;20289;-70